Airfield :
LOGIN :

Register | Disclaimer

   EN    FR    IT 

 










Legend :    VFR   Marginal VFR   IFR   Intensive IFR   Very Intensive IFR
Visi :
Ceiling :
>= 8 km
>= 3000ft
5 to 8 km
1000 to 3000 ft
1500m to 5 km
500 to 1000 ft
800 to 1500m
200 to 500 ft
< 800m
< 200 ft
Symbols :   Thunderstorms  Fog  Heavy snow  Heavy precipitations  Wind > 20 kt
SIGMETs :     Misc.  Thunderstorms  Icing  Turbulence  Mountain Waves  Volcanic Ashes







- Airport Elevation : 172 ft
- IATA code : ODS


UKOO - Odesa

CURRENT METAR :
  • 162300Z 06005MPS CAVOK 26/16 Q1012 R34/090060 NOSIG

EXPIRED METARs :
  • 162230Z 05006MPS CAVOK 26/17 Q1012 R34/090060 NOSIG
  • 162200Z 03004MPS CAVOK 27/16 Q1012 R34/090060 NOSIG
  • 162130Z 04004MPS CAVOK 28/16 Q1012 R34/090060 NOSIG
  • 162100Z 04004MPS 360V070 CAVOK 28/16 Q1012 R34/090060 NOSIG
  • 162030Z 03003MPS CAVOK 28/16 Q1011 R34/090060 NOSIG

TAF TAF UKOO
Valid from the 16 at 18:00 until the 17 at 18:00 UTC


161704Z 1618/1718 03003G08MPS 6000 SCT010 SCT020CB TX30/1712Z TN22/1702Z
PROB40
TEMPO 1618/1703 VRB14MPS 2100 -TSRAGR
BECMG 1709/1710 09003MPS
No reported NOTAMs for that airfield.



MET'MAP, your aeronautical weather chart ! - Copyright ORBIFLY December 2007 - Disclaimer

ORBIFLY MET'MAP TEAM :

Programming & Development : Alexandra Zaïnal
Concept & Development : Baudouin d'Aumeries
Co-Development & Prog : Marc-Olivier Méhu
Technical & hardware support : Manuel Goepfert

Contact : metmap@orbifly.com




SOURCES & CREDITS :

   NOAA